Time;durP1;ratioP1;P1;durP2;ratioP2;P2;SDS_P1;SDS_P2;PMS_P1;PMS_P2;Temp;Humidity;BMP_temperature;BMP_pressure;BME280_temperature;BME280_humidity;BME280_pressure;Samples;Min_cycle;Max_cycle;Signal;HPM_P1;HPM_P2
2021/07/07 00:01:04;;;;;;;2.43;2.00;;;;;;;;;;5036316;28;20456;-74
2021/07/07 00:03:30;;;;;;;4.20;2.10;;;;;;;;;;5036248;28;20424;-74
2021/07/07 00:05:56;;;;;;;2.90;1.80;;;;;;;;;;5036071;28;20413;-75
2021/07/07 00:08:22;;;;;;;2.93;1.87;;;;;;;;;;5035528;28;20417;-73
2021/07/07 00:10:48;;;;;;;2.80;1.80;;;;;;;;;;5035777;28;20467;-73
2021/07/07 00:13:14;;;;;;;4.47;1.90;;;;;;;;;;5036233;28;20742;-72
2021/07/07 00:15:40;;;;;;;2.27;1.57;;;;;;;;;;5035912;28;20413;-73
2021/07/07 00:18:08;;;;;;;6.30;2.03;;;;;;;;;;5035572;28;20503;-74
2021/07/07 00:20:41;;;;;;;4.07;2.30;;;;;;;;;;5035696;28;20440;-75
2021/07/07 00:23:07;;;;;;;3.50;2.07;;;;;;;;;;5036129;28;20454;-73
2021/07/07 00:25:33;;;;;;;3.13;2.30;;;;;;;;;;5035767;28;20417;-74
2021/07/07 00:27:59;;;;;;;2.60;1.63;;;;;;;;;;5035350;28;20416;-73
2021/07/07 00:30:27;;;;;;;3.90;2.17;;;;;;;;;;5035772;28;20896;-72
2021/07/07 00:32:53;;;;;;;4.20;2.40;;;;;;;;;;5035724;28;20412;-74
2021/07/07 00:35:19;;;;;;;3.00;2.17;;;;;;;;;;5035402;28;20496;-73
2021/07/07 00:37:45;;;;;;;3.13;2.00;;;;;;;;;;5035279;28;20413;-74
2021/07/07 00:40:11;;;;;;;4.23;2.00;;;;;;;;;;5035840;28;20816;-74
2021/07/07 00:42:37;;;;;;;5.77;2.07;;;;;;;;;;5035304;28;20424;-73
2021/07/07 00:45:04;;;;;;;2.60;2.10;;;;;;;;;;5034735;28;20420;-73
2021/07/07 00:47:30;;;;;;;4.60;2.20;;;;;;;;;;5035178;28;20412;-71
2021/07/07 00:49:57;;;;;;;2.93;2.13;;;;;;;;;;5035227;28;20813;-73
2021/07/07 00:52:23;;;;;;;3.90;2.30;;;;;;;;;;5035730;28;20421;-73
2021/07/07 00:54:50;;;;;;;2.90;2.57;;;;;;;;;;5035183;28;20408;-71
2021/07/07 00:57:16;;;;;;;4.50;2.63;;;;;;;;;;5034705;28;20492;-72
2021/07/07 00:59:44;;;;;;;3.97;2.50;;;;;;;;;;5033762;28;20464;-73
2021/07/07 01:02:11;;;;;;;4.03;2.70;;;;;;;;;;5035169;28;20511;-74
2021/07/07 01:04:37;;;;;;;6.87;2.07;;;;;;;;;;5035113;28;20425;-75
2021/07/07 01:07:03;;;;;;;3.17;2.30;;;;;;;;;;5034305;28;20478;-72
2021/07/07 01:09:29;;;;;;;3.87;2.67;;;;;;;;;;5034731;28;20824;-72
2021/07/07 01:11:55;;;;;;;3.90;2.23;;;;;;;;;;5034795;28;20407;-74
2021/07/07 01:14:21;;;;;;;2.30;2.07;;;;;;;;;;5034902;28;20431;-73
2021/07/07 01:16:49;;;;;;;2.70;2.10;;;;;;;;;;5034529;28;20421;-73
2021/07/07 01:19:16;;;;;;;2.93;2.47;;;;;;;;;;5034973;28;20412;-72
2021/07/07 01:21:43;;;;;;;6.60;2.40;;;;;;;;;;5034879;28;20432;-71
2021/07/07 01:24:09;;;;;;;4.93;2.10;;;;;;;;;;5034709;28;20417;-74
2021/07/07 01:26:35;;;;;;;3.60;2.33;;;;;;;;;;5034398;28;20930;-73
2021/07/07 01:29:01;;;;;;;3.10;2.43;;;;;;;;;;5034547;28;20447;-75
2021/07/07 01:31:27;;;;;;;3.70;2.47;;;;;;;;;;5034434;28;20479;-72
2021/07/07 01:33:53;;;;;;;3.33;2.30;;;;;;;;;;5034347;28;20408;-75
2021/07/07 01:36:19;;;;;;;3.00;2.03;;;;;;;;;;5034392;28;20898;-70
2021/07/07 01:38:45;;;;;;;2.60;2.40;;;;;;;;;;5034501;28;20474;-73
2021/07/07 01:41:12;;;;;;;4.10;2.13;;;;;;;;;;5034428;28;20448;-74
2021/07/07 01:43:38;;;;;;;3.10;2.80;;;;;;;;;;5034445;28;20413;-75
2021/07/07 01:46:04;;;;;;;4.30;2.30;;;;;;;;;;5034363;28;20474;-73
2021/07/07 01:48:30;;;;;;;4.93;2.50;;;;;;;;;;5033822;28;20415;-72
2021/07/07 01:50:56;;;;;;;6.33;2.80;;;;;;;;;;5034235;28;20471;-76
2021/07/07 01:53:22;;;;;;;6.20;2.83;;;;;;;;;;5034074;28;20774;-71
2021/07/07 01:55:48;;;;;;;3.50;2.70;;;;;;;;;;5033308;28;20503;-75
2021/07/07 01:58:14;;;;;;;2.77;2.00;;;;;;;;;;5033630;28;20448;-75
2021/07/07 02:00:41;;;;;;;4.20;2.70;;;;;;;;;;5032777;28;20471;-77
2021/07/07 02:03:07;;;;;;;4.70;2.40;;;;;;;;;;5034113;28;20416;-76
2021/07/07 02:05:34;;;;;;;3.07;2.47;;;;;;;;;;5034057;28;20439;-74
2021/07/07 02:08:01;;;;;;;4.03;2.57;;;;;;;;;;5033797;28;20474;-74
2021/07/07 02:10:27;;;;;;;3.53;2.40;;;;;;;;;;5038999;28;20459;-73
2021/07/07 02:12:53;;;;;;;3.90;2.43;;;;;;;;;;5035636;28;20434;-75
2021/07/07 02:15:21;;;;;;;3.10;2.33;;;;;;;;;;5033669;28;20417;-73
2021/07/07 02:17:48;;;;;;;3.60;2.30;;;;;;;;;;5033117;28;20425;-74
2021/07/07 02:20:14;;;;;;;2.70;2.00;;;;;;;;;;5033845;28;20439;-75
2021/07/07 02:22:41;;;;;;;3.33;2.40;;;;;;;;;;5033620;28;20417;-74
2021/07/07 02:25:12;;;;;;;2.90;2.50;;;;;;;;;;5033710;28;20531;-74
2021/07/07 02:27:38;;;;;;;4.00;2.60;;;;;;;;;;5032746;28;20421;-72
2021/07/07 02:30:05;;;;;;;3.63;2.73;;;;;;;;;;5033224;28;20471;-73
2021/07/07 02:32:31;;;;;;;3.53;2.47;;;;;;;;;;5033285;28;20496;-75
2021/07/07 02:34:57;;;;;;;4.07;2.90;;;;;;;;;;5033577;28;20449;-75
2021/07/07 02:37:24;;;;;;;4.27;2.80;;;;;;;;;;5032707;28;20425;-75
2021/07/07 02:39:50;;;;;;;2.80;2.43;;;;;;;;;;5027856;28;20433;-73
2021/07/07 02:42:16;;;;;;;2.70;2.30;;;;;;;;;;5026715;28;20766;-73
2021/07/07 02:44:43;;;;;;;3.33;3.03;;;;;;;;;;5033036;28;20416;-73
2021/07/07 02:47:09;;;;;;;3.93;2.57;;;;;;;;;;5026402;28;20408;-72
2021/07/07 02:49:35;;;;;;;5.60;2.80;;;;;;;;;;5033065;28;20439;-73
2021/07/07 02:52:01;;;;;;;2.80;2.10;;;;;;;;;;5033220;28;20820;-73
2021/07/07 02:54:27;;;;;;;3.13;2.17;;;;;;;;;;5033289;28;20409;-74
2021/07/07 02:56:53;;;;;;;2.77;2.20;;;;;;;;;;5032653;28;20404;-72
2021/07/07 02:59:19;;;;;;;3.37;2.27;;;;;;;;;;5032838;28;20440;-73
2021/07/07 03:01:45;;;;;;;2.47;2.00;;;;;;;;;;5033159;28;20412;-75
2021/07/07 03:04:11;;;;;;;4.10;2.10;;;;;;;;;;5032930;28;20413;-75
2021/07/07 03:06:37;;;;;;;2.70;2.10;;;;;;;;;;5032359;28;20420;-73
2021/07/07 03:09:03;;;;;;;3.00;2.10;;;;;;;;;;5032906;28;20419;-76
2021/07/07 03:11:29;;;;;;;4.23;2.20;;;;;;;;;;5026977;28;20972;-72
2021/07/07 03:13:57;;;;;;;3.30;2.43;;;;;;;;;;5032630;28;20413;-74
2021/07/07 03:16:23;;;;;;;2.97;1.93;;;;;;;;;;5027211;28;20458;-74
2021/07/07 03:18:49;;;;;;;3.53;2.40;;;;;;;;;;5032585;28;20408;-74
2021/07/07 03:21:15;;;;;;;3.33;2.10;;;;;;;;;;5032836;28;20467;-74
2021/07/07 03:23:41;;;;;;;3.53;2.43;;;;;;;;;;5033155;28;20404;-76
2021/07/07 03:26:07;;;;;;;2.87;2.30;;;;;;;;;;5032691;28;20420;-73
2021/07/07 03:28:33;;;;;;;2.40;2.00;;;;;;;;;;5032290;28;20415;-73
2021/07/07 03:30:59;;;;;;;3.30;2.77;;;;;;;;;;5032840;28;20559;-74
2021/07/07 03:33:25;;;;;;;2.50;2.10;;;;;;;;;;5032757;28;20412;-74
2021/07/07 03:35:52;;;;;;;3.00;1.90;;;;;;;;;;5032850;28;20820;-72
2021/07/07 03:38:18;;;;;;;3.23;1.93;;;;;;;;;;5032507;28;20495;-73
2021/07/07 03:40:44;;;;;;;6.37;2.43;;;;;;;;;;5032533;28;20829;-72
2021/07/07 03:43:10;;;;;;;2.27;1.80;;;;;;;;;;5032590;28;20421;-72
2021/07/07 03:45:36;;;;;;;4.90;2.50;;;;;;;;;;5032755;28;20435;-71
2021/07/07 03:48:02;;;;;;;3.73;2.30;;;;;;;;;;5032267;28;20427;-71
2021/07/07 03:50:29;;;;;;;3.13;2.23;;;;;;;;;;5032373;28;20471;-74
2021/07/07 03:52:56;;;;;;;3.30;1.90;;;;;;;;;;5032439;28;20893;-73
2021/07/07 03:55:24;;;;;;;3.80;2.00;;;;;;;;;;5032480;28;20444;-72
2021/07/07 03:57:50;;;;;;;4.00;2.13;;;;;;;;;;5032160;28;20408;-73
2021/07/07 04:00:17;;;;;;;3.43;2.00;;;;;;;;;;5032244;28;20464;-73
2021/07/07 04:02:43;;;;;;;2.90;2.43;;;;;;;;;;5032658;28;20507;-71
2021/07/07 04:05:10;;;;;;;3.20;2.70;;;;;;;;;;5032580;28;20455;-75
2021/07/07 04:07:36;;;;;;;4.50;2.27;;;;;;;;;;5032267;28;20423;-75
2021/07/07 04:10:04;;;;;;;3.50;3.20;;;;;;;;;;5032119;28;20463;-72
2021/07/07 04:12:30;;;;;;;4.77;2.67;;;;;;;;;;5032423;28;20416;-72
2021/07/07 04:14:56;;;;;;;3.73;2.40;;;;;;;;;;5032496;28;20753;-72
2021/07/07 04:17:22;;;;;;;3.47;2.87;;;;;;;;;;5032107;28;20417;-73
2021/07/07 04:19:48;;;;;;;2.90;2.57;;;;;;;;;;5034834;28;20439;-74
2021/07/07 04:22:14;;;;;;;4.13;2.80;;;;;;;;;;5036240;28;20423;-75
2021/07/07 04:24:40;;;;;;;4.37;3.37;;;;;;;;;;5035535;28;20496;-74
2021/07/07 04:27:06;;;;;;;5.20;3.00;;;;;;;;;;5035719;28;20420;-73
2021/07/07 04:29:32;;;;;;;4.97;2.83;;;;;;;;;;5035678;28;20951;-76
2021/07/07 04:31:58;;;;;;;3.73;3.37;;;;;;;;;;5035827;28;20421;-75
2021/07/07 04:34:25;;;;;;;4.53;2.70;;;;;;;;;;5035518;28;20502;-73
2021/07/07 04:36:51;;;;;;;3.90;2.50;;;;;;;;;;5035302;28;20425;-77
2021/07/07 04:39:17;;;;;;;6.10;2.37;;;;;;;;;;5033366;28;20415;-76
2021/07/07 04:41:43;;;;;;;4.73;2.67;;;;;;;;;;5031307;28;20432;-73
2021/07/07 04:44:09;;;;;;;6.70;2.53;;;;;;;;;;5035637;28;20408;-73
2021/07/07 04:46:35;;;;;;;4.50;2.60;;;;;;;;;;5033709;28;20979;-73
2021/07/07 04:49:01;;;;;;;4.80;2.50;;;;;;;;;;5035344;28;20416;-75
2021/07/07 04:51:27;;;;;;;8.10;2.90;;;;;;;;;;5035579;28;20518;-75
2021/07/07 04:53:53;;;;;;;4.10;2.70;;;;;;;;;;5035425;28;20812;-74
2021/07/07 04:56:19;;;;;;;4.60;2.60;;;;;;;;;;5035282;28;20734;-75
2021/07/07 04:58:45;;;;;;;5.53;2.07;;;;;;;;;;5034602;28;20726;-74
2021/07/07 05:01:11;;;;;;;4.00;2.40;;;;;;;;;;5035214;28;20866;-74
2021/07/07 05:03:37;;;;;;;2.67;2.07;;;;;;;;;;5034995;28;20412;-75
2021/07/07 05:06:03;;;;;;;3.43;2.10;;;;;;;;;;5035379;28;20413;-75
2021/07/07 05:08:30;;;;;;;4.27;2.30;;;;;;;;;;5034594;28;20910;-71
2021/07/07 05:10:56;;;;;;;2.67;2.07;;;;;;;;;;5034818;28;20471;-76
2021/07/07 05:13:22;;;;;;;3.33;2.33;;;;;;;;;;5035082;28;20421;-73
2021/07/07 05:15:48;;;;;;;4.70;2.70;;;;;;;;;;5034990;28;20984;-77
2021/07/07 05:18:18;;;;;;;5.57;2.50;;;;;;;;;;5034547;28;20900;-76
2021/07/07 05:20:45;;;;;;;5.37;2.23;;;;;;;;;;5034613;28;20433;-72
2021/07/07 05:23:11;;;;;;;4.33;2.57;;;;;;;;;;5034578;28;20424;-74
2021/07/07 05:25:38;;;;;;;7.70;2.50;;;;;;;;;;5034963;28;20456;-73
2021/07/07 05:28:05;;;;;;;7.47;2.50;;;;;;;;;;5034472;28;20423;-74
2021/07/07 05:30:31;;;;;;;4.30;2.83;;;;;;;;;;5034374;28;20463;-72
2021/07/07 05:32:59;;;;;;;3.23;2.20;;;;;;;;;;5034630;28;20413;-71
2021/07/07 05:35:25;;;;;;;4.47;2.23;;;;;;;;;;5034683;28;20448;-70
2021/07/07 05:37:51;;;;;;;4.53;2.50;;;;;;;;;;5034116;28;20447;-73
2021/07/07 05:40:18;;;;;;;5.60;3.03;;;;;;;;;;5027957;28;20443;-73
2021/07/07 05:42:49;;;;;;;3.83;2.17;;;;;;;;;;5034492;28;20420;-73
2021/07/07 05:45:16;;;;;;;5.93;2.23;;;;;;;;;;5034071;28;20420;-74
2021/07/07 05:47:42;;;;;;;5.87;2.40;;;;;;;;;;5034253;28;20412;-74
2021/07/07 05:50:08;;;;;;;3.20;2.27;;;;;;;;;;5034066;28;20465;-72
2021/07/07 05:52:34;;;;;;;5.77;2.30;;;;;;;;;;5034235;28;20757;-72
2021/07/07 05:55:00;;;;;;;4.13;1.90;;;;;;;;;;5034261;28;20405;-72
2021/07/07 05:57:37;;;;;;;4.20;2.00;;;;;;;;;;5033561;28;20417;-73
2021/07/07 06:00:05;;;;;;;3.73;2.40;;;;;;;;;;5034218;28;20448;-74
2021/07/07 06:02:31;;;;;;;4.00;2.20;;;;;;;;;;5033928;28;20750;-73
2021/07/07 06:04:57;;;;;;;4.70;2.37;;;;;;;;;;5033855;28;20421;-72
2021/07/07 06:07:23;;;;;;;2.80;2.30;;;;;;;;;;5033357;28;20420;-74
2021/07/07 06:09:48;;;;;;;7.17;3.00;;;;;;;;;;5033693;28;20463;-73
2021/07/07 06:12:14;;;;;;;4.97;2.37;;;;;;;;;;5033743;28;20413;-76
2021/07/07 06:14:40;;;;;;;5.13;2.70;;;;;;;;;;5033164;28;22071;-71
2021/07/07 06:17:06;;;;;;;6.03;2.80;;;;;;;;;;5033189;28;20421;-72
2021/07/07 06:19:33;;;;;;;5.63;2.60;;;;;;;;;;5033561;28;20463;-73
2021/07/07 06:22:00;;;;;;;4.17;2.70;;;;;;;;;;5033789;28;20777;-74
2021/07/07 06:24:27;;;;;;;5.53;2.50;;;;;;;;;;5034059;28;20414;-75
2021/07/07 06:26:53;;;;;;;4.87;2.90;;;;;;;;;;5029712;28;21735;-74
2021/07/07 06:29:19;;;;;;;5.10;2.87;;;;;;;;;;5029598;28;20441;-72
2021/07/07 06:31:46;;;;;;;3.80;2.83;;;;;;;;;;5027200;28;20472;-73
2021/07/07 06:34:12;;;;;;;5.30;2.50;;;;;;;;;;5024409;28;20432;-73
2021/07/07 06:36:38;;;;;;;7.67;2.23;;;;;;;;;;5028869;28;20463;-74
2021/07/07 06:39:05;;;;;;;5.87;2.27;;;;;;;;;;5026572;28;20463;-73
2021/07/07 06:41:32;;;;;;;5.27;2.27;;;;;;;;;;5028101;28;20468;-70
2021/07/07 06:43:58;;;;;;;4.13;2.40;;;;;;;;;;5029316;28;20449;-75
2021/07/07 06:46:24;;;;;;;4.30;2.30;;;;;;;;;;5027888;28;20851;-72
2021/07/07 06:48:50;;;;;;;3.70;1.90;;;;;;;;;;5029087;28;20514;-71
2021/07/07 06:51:16;;;;;;;3.10;2.10;;;;;;;;;;5029036;28;21281;-72
2021/07/07 06:53:43;;;;;;;3.17;2.03;;;;;;;;;;5029149;28;20425;-74
2021/07/07 06:56:09;;;;;;;3.70;2.47;;;;;;;;;;5029150;28;21005;-72
2021/07/07 06:58:35;;;;;;;3.60;2.13;;;;;;;;;;5028861;28;20416;-71
2021/07/07 07:01:01;;;;;;;2.70;2.23;;;;;;;;;;5028641;28;20803;-74
2021/07/07 07:03:27;;;;;;;4.27;2.53;;;;;;;;;;5029239;28;20751;-71
2021/07/07 07:05:53;;;;;;;3.83;2.80;;;;;;;;;;5028546;28;20782;-72
2021/07/07 07:08:19;;;;;;;3.67;2.50;;;;;;;;;;5028827;28;20773;-71
2021/07/07 07:10:45;;;;;;;3.93;2.23;;;;;;;;;;5029096;28;20476;-72
2021/07/07 07:13:12;;;;;;;3.10;2.13;;;;;;;;;;5029163;28;20419;-73
2021/07/07 07:15:38;;;;;;;3.50;2.57;;;;;;;;;;5028908;28;20853;-72
2021/07/07 07:18:05;;;;;;;5.00;2.40;;;;;;;;;;5028610;28;20503;-73
2021/07/07 07:20:31;;;;;;;4.10;2.43;;;;;;;;;;5028927;28;20440;-75
2021/07/07 07:22:58;;;;;;;4.33;1.83;;;;;;;;;;5028960;28;20426;-75
2021/07/07 07:25:24;;;;;;;4.10;2.30;;;;;;;;;;5029022;28;20420;-74
2021/07/07 07:27:50;;;;;;;4.87;1.90;;;;;;;;;;5028409;28;20420;-73
2021/07/07 07:30:16;;;;;;;4.50;2.10;;;;;;;;;;5026184;28;20466;-72
2021/07/07 07:32:42;;;;;;;3.57;2.20;;;;;;;;;;5028952;28;20448;-73
2021/07/07 07:35:08;;;;;;;4.03;1.97;;;;;;;;;;5028878;28;20416;-72
2021/07/07 07:37:49;;;;;;;4.23;2.33;;;;;;;;;;5028666;28;20818;-75
2021/07/07 07:40:21;;;;;;;6.70;2.17;;;;;;;;;;5029012;28;20468;-73
2021/07/07 07:42:47;;;;;;;3.20;2.13;;;;;;;;;;5028995;28;20507;-75
2021/07/07 07:45:13;;;;;;;3.60;1.87;;;;;;;;;;5029012;28;20808;-74
2021/07/07 07:47:40;;;;;;;2.73;2.17;;;;;;;;;;5026916;28;20425;-72
2021/07/07 07:50:07;;;;;;;2.87;2.20;;;;;;;;;;5028739;28;20464;-73
2021/07/07 07:52:33;;;;;;;2.50;1.93;;;;;;;;;;5028198;28;20448;-72
2021/07/07 07:54:59;;;;;;;3.00;2.20;;;;;;;;;;5031721;28;20526;-74
2021/07/07 07:57:25;;;;;;;3.23;2.30;;;;;;;;;;5032043;28;20440;-72
2021/07/07 07:59:51;;;;;;;3.20;1.97;;;;;;;;;;5032310;28;20968;-72
2021/07/07 08:02:17;;;;;;;2.73;1.97;;;;;;;;;;5032414;28;20420;-72
2021/07/07 08:04:43;;;;;;;2.73;2.03;;;;;;;;;;5032609;28;20757;-73
2021/07/07 08:07:09;;;;;;;4.73;1.97;;;;;;;;;;5031954;28;20416;-71
2021/07/07 08:09:35;;;;;;;3.20;1.80;;;;;;;;;;5032007;28;20436;-74
2021/07/07 08:12:01;;;;;;;3.87;1.73;;;;;;;;;;5032102;28;20803;-72
2021/07/07 08:14:27;;;;;;;2.80;1.80;;;;;;;;;;5032260;28;20413;-71
2021/07/07 08:16:53;;;;;;;2.30;1.83;;;;;;;;;;5031763;28;20420;-73
2021/07/07 08:19:19;;;;;;;2.40;1.87;;;;;;;;;;5032187;28;20511;-72
2021/07/07 08:21:45;;;;;;;2.90;1.70;;;;;;;;;;5031861;28;20837;-74
2021/07/07 08:24:11;;;;;;;3.07;1.70;;;;;;;;;;5031908;28;20905;-74
2021/07/07 08:26:37;;;;;;;3.20;1.70;;;;;;;;;;5031540;28;20482;-74
2021/07/07 08:29:03;;;;;;;3.07;1.73;;;;;;;;;;5031766;28;20424;-74
2021/07/07 08:31:29;;;;;;;2.93;1.90;;;;;;;;;;5031901;28;20464;-73
2021/07/07 08:33:55;;;;;;;2.07;1.50;;;;;;;;;;5031808;28;20420;-72
2021/07/07 08:36:26;;;;;;;3.33;1.77;;;;;;;;;;5031895;28;20416;-74
2021/07/07 08:38:53;;;;;;;3.13;2.43;;;;;;;;;;5031808;28;20782;-73
2021/07/07 08:41:19;;;;;;;3.80;1.70;;;;;;;;;;5031853;28;20797;-72
2021/07/07 08:43:45;;;;;;;2.70;1.93;;;;;;;;;;5031029;28;20838;-75
2021/07/07 08:46:11;;;;;;;4.10;2.00;;;;;;;;;;5030320;28;20420;-73
2021/07/07 08:48:38;;;;;;;4.97;1.80;;;;;;;;;;5030743;28;20443;-72
2021/07/07 08:51:04;;;;;;;3.77;2.00;;;;;;;;;;5031611;28;20466;-74
2021/07/07 08:53:34;;;;;;;5.50;2.30;;;;;;;;;;5030904;28;20444;-74
2021/07/07 08:56:00;;;;;;;4.23;1.87;;;;;;;;;;5030230;28;20840;-75
2021/07/07 08:58:26;;;;;;;3.50;2.30;;;;;;;;;;5029827;28;20408;-73
2021/07/07 09:00:52;;;;;;;3.27;2.00;;;;;;;;;;5031209;28;20467;-75
2021/07/07 09:03:18;;;;;;;5.40;2.10;;;;;;;;;;5030837;28;21013;-73
2021/07/07 09:05:53;;;;;;;3.80;2.30;;;;;;;;;;5030818;28;20432;-73
2021/07/07 09:08:22;;;;;;;4.90;1.90;;;;;;;;;;5025023;28;20553;-73
2021/07/07 09:10:48;;;;;;;19.80;3.87;;;;;;;;;;5031037;28;20512;-72
2021/07/07 09:13:17;;;;;;;3.17;2.00;;;;;;;;;;5031100;28;20444;-72
2021/07/07 09:15:43;;;;;;;2.33;1.90;;;;;;;;;;5031012;28;20509;-73
2021/07/07 09:18:18;;;;;;;3.17;2.07;;;;;;;;;;5030305;28;20438;-73
2021/07/07 09:20:44;;;;;;;5.40;2.47;;;;;;;;;;5030917;28;20917;-74
2021/07/07 09:23:15;;;;;;;3.30;1.97;;;;;;;;;;5030826;28;20515;-73
2021/07/07 09:25:49;;;;;;;3.43;2.07;;;;;;;;;;5030911;28;20931;-72
2021/07/07 09:28:18;;;;;;;3.17;2.00;;;;;;;;;;5030248;28;20420;-72
2021/07/07 09:30:44;;;;;;;3.17;2.10;;;;;;;;;;5030456;28;20817;-72
2021/07/07 09:33:11;;;;;;;3.03;2.00;;;;;;;;;;5030515;28;20420;-74
2021/07/07 09:35:37;;;;;;;3.13;1.90;;;;;;;;;;5030697;28;20818;-73
2021/07/07 09:38:06;;;;;;;2.50;1.80;;;;;;;;;;5030068;28;20424;-71
2021/07/07 09:40:34;;;;;;;3.03;2.10;;;;;;;;;;5030914;28;20451;-73
2021/07/07 09:43:03;;;;;;;3.47;2.40;;;;;;;;;;5030468;28;20785;-71
2021/07/07 09:45:30;;;;;;;4.43;2.53;;;;;;;;;;5030422;28;20420;-74
2021/07/07 09:47:56;;;;;;;2.87;1.77;;;;;;;;;;5030099;28;20416;-72
2021/07/07 09:50:23;;;;;;;2.80;1.60;;;;;;;;;;5023871;28;20467;-73
2021/07/07 09:52:49;;;;;;;5.00;2.00;;;;;;;;;;5030273;28;20419;-73
2021/07/07 09:55:15;;;;;;;2.73;1.87;;;;;;;;;;5028992;28;20424;-74
2021/07/07 09:57:48;;;;;;;2.40;1.80;;;;;;;;;;5029138;28;20941;-72
2021/07/07 10:00:21;;;;;;;3.50;2.10;;;;;;;;;;5029951;28;20992;-73
2021/07/07 10:02:48;;;;;;;3.70;1.83;;;;;;;;;;5030128;28;20448;-75
2021/07/07 10:05:15;;;;;;;3.47;1.83;;;;;;;;;;5030335;28;20840;-74
2021/07/07 10:07:43;;;;;;;2.87;2.00;;;;;;;;;;5029715;28;20416;-73
2021/07/07 10:10:09;;;;;;;2.53;1.67;;;;;;;;;;5029916;28;20471;-74
2021/07/07 10:12:36;;;;;;;4.20;1.60;;;;;;;;;;5030113;28;20435;-73
2021/07/07 10:15:02;;;;;;;4.33;2.20;;;;;;;;;;5029949;28;20412;-72
2021/07/07 10:17:28;;;;;;;4.67;1.83;;;;;;;;;;5027604;28;20443;-74
2021/07/07 10:19:54;;;;;;;2.70;2.10;;;;;;;;;;5029755;28;20937;-74
2021/07/07 10:22:21;;;;;;;3.20;2.03;;;;;;;;;;5029955;28;20421;-71
2021/07/07 10:24:47;;;;;;;4.80;1.80;;;;;;;;;;5022938;28;20418;-72
2021/07/07 10:27:13;;;;;;;3.13;1.70;;;;;;;;;;5029245;28;20501;-74
2021/07/07 10:29:42;;;;;;;2.70;1.80;;;;;;;;;;5029230;28;20476;-73
2021/07/07 10:32:08;;;;;;;5.10;1.67;;;;;;;;;;5029635;28;20470;-72
2021/07/07 10:34:37;;;;;;;3.10;1.60;;;;;;;;;;5029659;28;20459;-74
2021/07/07 10:37:04;;;;;;;2.90;1.63;;;;;;;;;;5029257;28;20432;-74
2021/07/07 10:39:32;;;;;;;3.97;1.83;;;;;;;;;;5029759;28;20441;-73
2021/07/07 10:41:59;;;;;;;3.10;1.70;;;;;;;;;;5029314;28;20889;-73
2021/07/07 10:44:25;;;;;;;2.50;1.80;;;;;;;;;;5027417;28;20413;-71
2021/07/07 10:46:59;;;;;;;3.10;1.70;;;;;;;;;;5029123;28;20955;-72
2021/07/07 10:49:26;;;;;;;5.80;1.70;;;;;;;;;;5027952;28;20956;-73
2021/07/07 10:51:53;;;;;;;3.83;1.70;;;;;;;;;;5029346;28;20959;-70
2021/07/07 10:54:27;;;;;;;2.27;1.70;;;;;;;;;;5029219;28;20420;-71
2021/07/07 10:56:54;;;;;;;2.20;1.80;;;;;;;;;;5029063;28;20393;-72
2021/07/07 10:59:39;;;;;;;3.00;1.90;;;;;;;;;;5028849;28;20535;-72
2021/07/07 11:02:09;;;;;;;3.40;1.60;;;;;;;;;;5029213;28;20412;-72
2021/07/07 11:04:35;;;;;;;4.80;1.80;;;;;;;;;;5029252;28;20432;-74
2021/07/07 11:07:20;;;;;;;2.40;1.80;;;;;;;;;;5028276;28;20428;-76
2021/07/07 11:09:48;;;;;;;2.97;1.87;;;;;;;;;;5028892;28;20437;-71
2021/07/07 11:12:14;;;;;;;3.57;1.80;;;;;;;;;;5029311;28;20408;-71
2021/07/07 11:14:58;;;;;;;3.53;1.60;;;;;;;;;;5029195;28;20424;-70
2021/07/07 11:17:24;;;;;;;2.70;1.70;;;;;;;;;;5027412;28;20510;-71
2021/07/07 11:19:51;;;;;;;3.57;1.63;;;;;;;;;;5028949;28;20448;-74
2021/07/07 11:22:18;;;;;;;2.53;1.77;;;;;;;;;;5029317;28;20423;-73
2021/07/07 11:24:45;;;;;;;3.60;1.63;;;;;;;;;;5028984;28;20526;-72
2021/07/07 11:27:11;;;;;;;2.97;1.60;;;;;;;;;;5029055;28;20595;-74
2021/07/07 11:29:37;;;;;;;2.37;1.57;;;;;;;;;;5033071;28;20436;-70
2021/07/07 11:32:20;;;;;;;2.80;1.50;;;;;;;;;;5033102;28;20530;-71
2021/07/07 11:34:51;;;;;;;2.60;1.70;;;;;;;;;;5031421;28;20971;-74
2021/07/07 11:37:20;;;;;;;4.63;1.40;;;;;;;;;;5032699;28;20474;-73
2021/07/07 11:39:59;;;;;;;4.00;3.63;;;;;;;;;;5026555;28;20504;-71
2021/07/07 11:42:25;;;;;;;5.03;2.17;;;;;;;;;;5032981;28;20423;-75
2021/07/07 11:44:51;;;;;;;2.27;1.53;;;;;;;;;;5032633;28;20746;-72
2021/07/07 11:47:24;;;;;;;2.23;1.60;;;;;;;;;;5032737;28;20409;-73
2021/07/07 11:50:04;;;;;;;3.00;1.70;;;;;;;;;;5032505;28;20790;-75
2021/07/07 11:52:30;;;;;;;2.50;1.70;;;;;;;;;;5032795;28;20494;-74
2021/07/07 11:54:56;;;;;;;2.73;1.40;;;;;;;;;;5032747;28;20432;-75
2021/07/07 11:57:22;;;;;;;3.43;1.60;;;;;;;;;;5024346;28;20420;-72
2021/07/07 11:59:55;;;;;;;2.50;1.70;;;;;;;;;;5032317;28;20963;-75
2021/07/07 12:02:21;;;;;;;2.20;1.60;;;;;;;;;;5032658;28;21193;-74
2021/07/07 12:04:47;;;;;;;3.43;1.80;;;;;;;;;;5032472;28;20408;-73
2021/07/07 12:07:14;;;;;;;4.17;1.90;;;;;;;;;;5031970;28;20404;-74
2021/07/07 12:09:40;;;;;;;2.87;1.73;;;;;;;;;;5032295;28;20436;-73
2021/07/07 12:12:09;;;;;;;2.47;1.60;;;;;;;;;;5032276;28;20499;-76
2021/07/07 12:14:39;;;;;;;2.03;1.33;;;;;;;;;;5032382;28;20897;-74
2021/07/07 12:17:05;;;;;;;2.10;1.40;;;;;;;;;;5032008;28;20570;-73
2021/07/07 12:19:32;;;;;;;2.30;1.60;;;;;;;;;;5030837;28;21027;-74
2021/07/07 12:22:00;;;;;;;2.90;1.50;;;;;;;;;;5032085;28;20979;-73
2021/07/07 12:24:34;;;;;;;2.47;1.57;;;;;;;;;;5031992;28;20416;-75
2021/07/07 12:27:02;;;;;;;3.80;1.87;;;;;;;;;;5031824;28;20423;-73
2021/07/07 12:29:30;;;;;;;3.63;1.73;;;;;;;;;;5032136;28;20502;-73
2021/07/07 12:31:59;;;;;;;3.00;2.00;;;;;;;;;;5032137;28;20491;-74
2021/07/07 12:34:33;;;;;;;3.00;2.03;;;;;;;;;;5032084;28;20500;-73
2021/07/07 12:36:59;;;;;;;3.97;1.80;;;;;;;;;;5031800;28;20806;-73
2021/07/07 12:39:27;;;;;;;2.50;1.90;;;;;;;;;;5031455;28;20443;-75
2021/07/07 12:42:09;;;;;;;2.57;2.00;;;;;;;;;;5031802;28;20420;-74
2021/07/07 12:44:39;;;;;;;3.10;2.30;;;;;;;;;;5031649;28;20488;-74
2021/07/07 12:47:16;;;;;;;4.03;1.80;;;;;;;;;;5031464;28;20428;-73
2021/07/07 12:49:55;;;;;;;4.30;2.00;;;;;;;;;;5031826;28;20557;-73
2021/07/07 12:52:29;;;;;;;2.57;1.70;;;;;;;;;;5031662;28;20460;-72
2021/07/07 12:55:03;;;;;;;2.90;1.80;;;;;;;;;;5031812;28;20466;-72
2021/07/07 12:57:41;;;;;;;2.27;1.70;;;;;;;;;;5031260;28;20413;-75
2021/07/07 13:00:07;;;;;;;2.77;1.80;;;;;;;;;;5028354;28;20567;-75
2021/07/07 13:02:47;;;;;;;3.80;2.10;;;;;;;;;;5031573;28;20519;-74
2021/07/07 13:05:13;;;;;;;5.73;5.10;;;;;;;;;;5031112;28;20424;-73
2021/07/07 13:07:39;;;;;;;3.00;2.23;;;;;;;;;;5030825;28;20421;-75
2021/07/07 13:10:05;;;;;;;3.73;2.00;;;;;;;;;;5031384;28;20460;-72
2021/07/07 13:12:31;;;;;;;3.93;2.43;;;;;;;;;;5031410;28;20423;-75
2021/07/07 13:14:58;;;;;;;2.83;2.17;;;;;;;;;;5031137;28;20428;-75
2021/07/07 13:17:24;;;;;;;5.30;1.70;;;;;;;;;;5030963;28;20423;-74
2021/07/07 13:20:00;;;;;;;3.77;2.00;;;;;;;;;;5030566;28;20444;-74
2021/07/07 13:22:26;;;;;;;2.80;2.40;;;;;;;;;;5031179;28;20416;-75
2021/07/07 13:24:52;;;;;;;2.83;2.10;;;;;;;;;;5030517;28;20424;-74
2021/07/07 13:27:19;;;;;;;3.00;2.10;;;;;;;;;;5030862;28;20412;-73
2021/07/07 13:29:51;;;;;;;3.30;1.93;;;;;;;;;;5030930;28;20469;-78
2021/07/07 13:32:23;;;;;;;4.23;2.00;;;;;;;;;;5023714;28;20435;-76
2021/07/07 13:34:56;;;;;;;3.53;1.90;;;;;;;;;;5017985;28;20412;-73
2021/07/07 13:37:32;;;;;;;6.47;2.10;;;;;;;;;;5019273;28;20508;-73
2021/07/07 13:39:59;;;;;;;4.40;1.97;;;;;;;;;;5030804;28;20967;-74
2021/07/07 13:42:26;;;;;;;4.27;2.30;;;;;;;;;;5029401;28;20427;-76
2021/07/07 13:44:52;;;;;;;4.30;2.00;;;;;;;;;;5030822;28;20503;-76
2021/07/07 13:47:19;;;;;;;6.73;2.00;;;;;;;;;;5030202;28;20417;-73
2021/07/07 13:49:45;;;;;;;3.97;2.20;;;;;;;;;;5029843;28;20436;-74
2021/07/07 13:52:12;;;;;;;2.50;2.20;;;;;;;;;;5030462;28;20998;-75
2021/07/07 13:54:38;;;;;;;3.73;2.50;;;;;;;;;;5030678;28;20432;-72
2021/07/07 13:57:05;;;;;;;3.87;2.20;;;;;;;;;;5030025;28;20416;-74
2021/07/07 13:59:31;;;;;;;2.70;1.90;;;;;;;;;;5030491;28;20852;-72
2021/07/07 14:01:57;;;;;;;4.60;2.10;;;;;;;;;;5028365;28;20498;-76
2021/07/07 14:04:23;;;;;;;3.50;1.90;;;;;;;;;;5030554;28;20420;-77
2021/07/07 14:06:49;;;;;;;5.27;2.10;;;;;;;;;;5029718;28;20420;-74
2021/07/07 14:09:15;;;;;;;4.20;2.13;;;;;;;;;;5030245;28;20456;-75
2021/07/07 14:11:42;;;;;;;3.10;2.30;;;;;;;;;;5030024;28;20467;-74
2021/07/07 14:14:08;;;;;;;3.90;2.10;;;;;;;;;;5029928;28;20455;-75
2021/07/07 14:16:34;;;;;;;2.80;2.10;;;;;;;;;;5027655;28;20515;-73
2021/07/07 14:19:00;;;;;;;3.60;2.13;;;;;;;;;;5030213;28;20413;-80
2021/07/07 14:21:26;;;;;;;4.80;2.10;;;;;;;;;;5030010;28;20421;-76
2021/07/07 14:23:53;;;;;;;4.63;2.17;;;;;;;;;;5029179;28;20428;-74
2021/07/07 14:26:19;;;;;;;2.33;1.90;;;;;;;;;;5029800;28;20909;-72
2021/07/07 14:28:45;;;;;;;5.53;1.93;;;;;;;;;;5027904;28;20424;-73
2021/07/07 14:31:11;;;;;;;3.50;2.20;;;;;;;;;;5031370;28;20479;-71
2021/07/07 14:33:37;;;;;;;5.10;2.50;;;;;;;;;;5032816;28;20784;-76
2021/07/07 14:36:03;;;;;;;2.60;1.90;;;;;;;;;;5029845;28;20412;-75
2021/07/07 14:38:29;;;;;;;3.10;1.80;;;;;;;;;;5038908;28;20404;-73
2021/07/07 14:40:55;;;;;;;2.97;2.00;;;;;;;;;;5023472;28;20471;-77
2021/07/07 14:43:21;;;;;;;4.97;1.97;;;;;;;;;;5029794;28;20490;-77